Galena, Maryland
Current Conditions -  °F | °C
As of 9:58 PM on Thursday 27 Nov 2014 (Local Time) from KDOV Reporting Station
Clear Clear  
Wind Chill: 29°   Ceiling: Unl
Heat Index: 33°   Visibility: 10mi
Dew Point: 29°   Wind: 5mph
Humidity: 84%   Direction: 250°WSW
Pressure: 30.1"   Gusts: NA
Location:  39.34°N, 75.88°W
Report Text: KDOV 280258Z AUTO 25004KT 10SM CLR 01/M02 A3010 RMK AO2 SLP196 T00061019 52009
Loading
Personal Weather Stations






























Interactive Weather Map New forecast layout! Learn more

10-Day Weather Forecast

Advertisements
Track Severe Weather on mobile